createdAt,value
2018-03-30T00:00:51.865Z,98265.78
2018-03-30T00:03:20.526Z,98274.66
2018-03-30T00:05:49.908Z,98264.17
2018-03-30T00:08:19.133Z,98262.92
2018-03-30T00:10:53.328Z,98267.88
2018-03-30T00:13:21.920Z,98266.38
2018-03-30T00:15:51.283Z,98274.93
2018-03-30T00:18:19.908Z,98267.70
2018-03-30T00:20:48.491Z,98264.98
2018-03-30T00:23:17.086Z,98272.73
2018-03-30T00:25:45.644Z,98280.35
2018-03-30T00:28:15.038Z,98277.86
2018-03-30T00:30:43.655Z,98276.45
2018-03-30T00:33:12.243Z,98276.41
2018-03-30T00:35:41.533Z,98279.16
2018-03-30T00:38:10.511Z,98279.17
2018-03-30T00:40:39.399Z,98278.80
2018-03-30T00:43:08.202Z,98284.30
2018-03-30T00:45:36.856Z,98278.95
2018-03-30T00:48:06.254Z,98275.57
2018-03-30T00:50:34.854Z,98277.16
2018-03-30T00:53:03.489Z,98285.80
2018-03-30T00:55:32.827Z,98282.15
2018-03-30T00:58:01.670Z,98281.54
2018-03-30T01:00:30.400Z,98281.31
2018-03-30T01:02:59.090Z,98271.25
2018-03-30T01:05:27.673Z,98276.41
2018-03-30T01:07:56.295Z,98280.75
2018-03-30T01:10:25.349Z,98279.91
2018-03-30T01:12:54.473Z,98281.30
2018-03-30T01:15:23.885Z,98284.57
2018-03-30T01:17:52.548Z,98285.29
2018-03-30T01:20:21.127Z,98287.22
2018-03-30T01:22:49.753Z,98285.95
2018-03-30T01:25:18.332Z,98286.83
2018-03-30T01:27:47.730Z,98289.52
2018-03-30T01:30:16.477Z,98289.59
2018-03-30T01:32:45.078Z,98283.95
2018-03-30T01:35:13.706Z,98282.19
2018-03-30T01:37:42.459Z,98282.50
2018-03-30T01:40:11.039Z,98285.39
2018-03-30T01:42:40.496Z,98275.16
2018-03-30T01:45:09.650Z,98281.23
2018-03-30T01:47:38.328Z,98283.38
2018-03-30T01:50:07.725Z,98282.11
2018-03-30T01:52:36.301Z,98282.11
2018-03-30T01:55:04.879Z,98286.33
2018-03-30T01:57:34.314Z,98292.51
2018-03-30T02:00:02.972Z,98283.41
2018-03-30T02:02:31.624Z,98290.62
2018-03-30T02:05:00.338Z,98290.64
2018-03-30T02:07:28.923Z,98290.39
2018-03-30T02:09:57.466Z,98289.02
2018-03-30T02:12:26.205Z,98288.91
2018-03-30T02:14:54.980Z,98288.94
2018-03-30T02:17:24.302Z,98291.89
2018-03-30T02:19:53.812Z,98291.51
2018-03-30T02:22:22.373Z,98293.50
2018-03-30T02:24:51.935Z,98294.19
2018-03-30T02:27:20.619Z,98295.89
2018-03-30T02:29:49.997Z,98290.42
2018-03-30T02:32:18.597Z,98289.97
2018-03-30T02:34:47.208Z,98293.82
2018-03-30T02:37:15.884Z,98294.13
2018-03-30T02:39:44.541Z,98289.19
2018-03-30T02:42:13.140Z,98285.77
2018-03-30T02:44:42.663Z,98287.28
2018-03-30T02:47:11.694Z,98291.28
2018-03-30T02:49:40.576Z,98289.70
2018-03-30T02:52:09.175Z,98283.94
2018-03-30T02:54:37.876Z,98281.05
2018-03-30T02:57:06.375Z,98274.09
2018-03-30T02:59:34.977Z,98272.94
2018-03-30T03:02:03.694Z,98268.80
2018-03-30T03:04:32.337Z,98261.61
2018-03-30T03:07:00.940Z,98265.48
2018-03-30T03:09:29.563Z,98266.36
2018-03-30T03:11:58.944Z,98273.67
2018-03-30T03:14:27.514Z,98271.80
2018-03-30T03:16:56.239Z,98274.91
2018-03-30T03:19:25.468Z,98273.35
2018-03-30T03:21:54.548Z,98270.97
2018-03-30T03:24:23.192Z,98266.22
2018-03-30T03:26:52.412Z,98269.75
2018-03-30T03:29:21.129Z,98270.00
2018-03-30T03:31:49.784Z,98268.92
2018-03-30T03:34:19.197Z,98266.81
2018-03-30T03:36:47.751Z,98264.11
2018-03-30T03:39:16.325Z,98265.88
2018-03-30T03:41:44.994Z,98260.97
2018-03-30T03:44:14.284Z,98261.02
2018-03-30T03:46:42.938Z,98257.19
2018-03-30T03:49:13.024Z,98254.03
2018-03-30T03:51:42.174Z,98259.33
2018-03-30T03:54:10.923Z,98261.88
2018-03-30T03:56:39.547Z,98262.91
2018-03-30T03:59:08.148Z,98256.02
2018-03-30T04:01:36.782Z,98254.38
2018-03-30T04:04:05.352Z,98258.03
2018-03-30T04:06:34.738Z,98259.59
2018-03-30T04:09:03.273Z,98253.20
2018-03-30T04:11:31.879Z,98254.38
2018-03-30T04:14:01.199Z,98259.72
2018-03-30T04:16:30.538Z,98251.08
2018-03-30T04:18:59.194Z,98253.33
2018-03-30T04:21:28.448Z,98254.09
2018-03-30T04:23:57.658Z,98256.16
2018-03-30T04:26:27.022Z,98260.73
2018-03-30T04:28:55.646Z,98261.67
2018-03-30T04:31:24.327Z,98266.45
2018-03-30T04:33:52.939Z,98258.24
2018-03-30T04:36:21.535Z,98265.22
2018-03-30T04:38:50.043Z,98257.77
2018-03-30T04:41:18.717Z,98245.01
2018-03-30T04:43:48.137Z,98243.98
2018-03-30T04:46:17.612Z,98244.19
2018-03-30T04:48:46.195Z,98243.00
2018-03-30T04:51:15.113Z,98242.73
2018-03-30T04:53:44.637Z,98239.27
2018-03-30T04:56:13.518Z,98239.41
2018-03-30T04:58:42.923Z,98236.95
2018-03-30T05:01:11.552Z,98239.03
2018-03-30T05:03:40.168Z,98232.59
2018-03-30T05:06:08.865Z,98229.41
2018-03-30T05:08:37.574Z,98242.66
2018-03-30T05:11:06.217Z,98238.87
2018-03-30T05:13:34.836Z,98238.45
2018-03-30T05:16:03.384Z,98237.85
2018-03-30T05:18:32.878Z,98233.63
2018-03-30T05:21:01.543Z,98229.58
2018-03-30T05:23:30.607Z,98226.11
2018-03-30T05:25:59.566Z,98232.53
2018-03-30T05:28:28.521Z,98223.43
2018-03-30T05:30:57.090Z,98228.80
2018-03-30T05:33:25.716Z,98237.20
2018-03-30T05:35:56.041Z,98245.02
2018-03-30T05:38:24.697Z,98242.33
2018-03-30T05:40:53.355Z,98238.92
2018-03-30T05:43:22.048Z,98241.27
2018-03-30T05:45:51.108Z,98240.91
2018-03-30T05:48:19.889Z,98250.29
2018-03-30T05:50:48.999Z,98246.11
2018-03-30T05:53:17.716Z,98250.27
2018-03-30T05:55:46.723Z,98248.95
2018-03-30T05:58:15.563Z,98247.87
2018-03-30T06:00:44.285Z,98247.45
2018-03-30T06:03:12.864Z,98254.44
2018-03-30T06:05:41.832Z,98253.20
2018-03-30T06:08:11.247Z,98258.58
2018-03-30T06:10:40.711Z,98258.94
2018-03-30T06:13:09.318Z,98260.63
2018-03-30T06:15:37.988Z,98254.97
2018-03-30T06:18:07.375Z,98254.46
2018-03-30T06:20:35.998Z,98244.66
2018-03-30T06:23:04.804Z,98240.70
2018-03-30T06:25:33.771Z,98241.66
2018-03-30T06:28:02.967Z,98246.20
2018-03-30T06:30:32.796Z,98238.48
2018-03-30T06:33:01.505Z,98245.61
2018-03-30T06:35:30.216Z,98256.52
2018-03-30T06:37:58.972Z,98243.04
2018-03-30T06:40:27.590Z,98248.98
2018-03-30T06:42:56.388Z,98249.38
2018-03-30T06:45:25.069Z,98259.01
2018-03-30T06:47:53.930Z,98249.32
2018-03-30T06:50:23.639Z,98251.41
2018-03-30T06:52:52.320Z,98246.93
2018-03-30T06:55:22.266Z,98252.92
2018-03-30T06:57:51.610Z,98260.52
2018-03-30T07:00:21.980Z,98263.02
2018-03-30T07:02:51.503Z,98270.61
2018-03-30T07:05:20.263Z,98262.81
2018-03-30T07:07:48.928Z,98251.50
2018-03-30T07:10:18.628Z,98241.22
2018-03-30T07:12:47.780Z,98233.94
2018-03-30T07:15:16.832Z,98247.72
2018-03-30T07:17:45.560Z,98250.52
2018-03-30T07:20:14.323Z,98257.66
2018-03-30T07:22:43.857Z,98268.88
2018-03-30T07:25:12.730Z,98268.63
2018-03-30T07:27:41.903Z,98267.83
2018-03-30T07:30:11.004Z,98277.72
2018-03-30T07:32:39.712Z,98277.52
2018-03-30T07:35:08.421Z,98278.05
2018-03-30T07:37:37.169Z,98284.55
2018-03-30T07:40:07.270Z,98275.19
2018-03-30T07:42:36.042Z,98288.55
2018-03-30T07:45:04.696Z,98284.57
2018-03-30T07:47:33.433Z,98295.20
2018-03-30T07:50:02.405Z,98293.45
2018-03-30T07:52:31.274Z,98298.08
2018-03-30T07:55:01.208Z,98298.31
2018-03-30T07:57:30.489Z,98294.02
2018-03-30T08:00:00.298Z,98288.22
2018-03-30T08:02:29.218Z,98296.23
2018-03-30T08:04:57.860Z,98289.57
2018-03-30T08:07:26.564Z,98295.01
2018-03-30T08:09:55.501Z,98297.48
2018-03-30T08:12:25.289Z,98292.51
2018-03-30T08:14:54.907Z,98281.26
2018-03-30T08:17:24.202Z,98289.45
2018-03-30T08:19:53.656Z,98275.56
2018-03-30T08:22:22.700Z,98288.70
2018-03-30T08:24:51.438Z,98284.35
2018-03-30T08:27:20.564Z,98279.49
2018-03-30T08:29:50.818Z,98282.85
2018-03-30T08:32:19.699Z,98284.32
2018-03-30T08:34:48.344Z,98285.16
2018-03-30T08:37:17.229Z,98290.52
2018-03-30T08:39:46.708Z,98268.53
2018-03-30T08:42:15.368Z,98281.02
2018-03-30T08:44:44.696Z,98292.97
2018-03-30T08:47:13.382Z,98289.69
2018-03-30T08:49:42.097Z,98288.50
2018-03-30T08:52:11.534Z,98300.95
2018-03-30T08:54:40.989Z,98284.52
2018-03-30T08:57:10.994Z,98277.34
2018-03-30T08:59:40.924Z,98271.55
2018-03-30T09:02:11.309Z,98273.44
2018-03-30T09:04:40.166Z,98263.11
2018-03-30T09:07:08.895Z,98264.91
2018-03-30T09:09:38.614Z,98259.56
2018-03-30T09:12:09.657Z,98260.61
2018-03-30T09:14:38.920Z,98256.98
2018-03-30T09:17:07.751Z,98249.47
2018-03-30T09:19:36.411Z,98232.70
2018-03-30T09:22:05.907Z,98243.23
2018-03-30T09:24:34.921Z,98244.25
2018-03-30T09:27:04.029Z,98239.59
2018-03-30T09:29:32.762Z,98245.77
2018-03-30T09:32:01.630Z,98249.01
2018-03-30T09:34:30.455Z,98242.38
2018-03-30T09:36:59.467Z,98245.72
2018-03-30T09:39:28.241Z,98240.72
2018-03-30T09:41:57.175Z,98233.91
2018-03-30T09:44:25.967Z,98248.63
2018-03-30T09:46:54.819Z,98253.76
2018-03-30T09:49:24.122Z,98252.59
2018-03-30T09:51:53.026Z,98252.06
2018-03-30T09:54:22.093Z,98249.84
2018-03-30T09:56:51.447Z,98242.58
2018-03-30T09:59:21.203Z,98241.67
2018-03-30T10:01:52.259Z,98235.91
2018-03-30T10:04:24.256Z,98240.31
2018-03-30T10:06:53.548Z,98235.42
2018-03-30T10:09:23.813Z,98240.32
2018-03-30T10:11:54.786Z,98242.58
2018-03-30T10:14:24.354Z,98223.38
2018-03-30T10:16:54.202Z,98216.59
2018-03-30T10:19:23.942Z,98236.69
2018-03-30T10:21:53.676Z,98225.30
2018-03-30T10:24:23.528Z,98229.59
2018-03-30T10:26:52.672Z,98226.89
2018-03-30T10:29:22.086Z,98216.73
2018-03-30T10:31:51.202Z,98222.93
2018-03-30T10:34:20.880Z,98218.30
2018-03-30T10:36:50.193Z,98229.57
2018-03-30T10:39:21.204Z,98252.19
2018-03-30T10:41:51.178Z,98222.48
2018-03-30T10:44:20.897Z,98230.28
2018-03-30T10:46:51.690Z,98218.23
2018-03-30T10:49:21.114Z,98216.87
2018-03-30T10:51:49.868Z,98221.30
2018-03-30T10:54:18.682Z,98221.10
2018-03-30T10:56:47.493Z,98213.25
2018-03-30T10:59:16.176Z,98213.39
2018-03-30T11:01:45.526Z,98205.55
2018-03-30T11:04:15.977Z,98211.20
2018-03-30T11:06:44.657Z,98210.75
2018-03-30T11:09:13.402Z,98202.42
2018-03-30T11:11:43.819Z,98206.25
2018-03-30T11:14:13.179Z,98200.63
2018-03-30T11:16:43.855Z,98208.41
2018-03-30T11:19:12.565Z,98208.56
2018-03-30T11:21:41.213Z,98201.69
2018-03-30T11:24:09.865Z,98194.66
2018-03-30T11:26:38.845Z,98188.27
2018-03-30T11:29:08.460Z,98191.97
2018-03-30T11:31:37.209Z,98180.39
2018-03-30T11:34:05.953Z,98196.20
2018-03-30T11:36:35.281Z,98190.44
2018-03-30T11:39:04.247Z,98176.98
2018-03-30T11:41:34.005Z,98179.48
2018-03-30T11:44:03.582Z,98177.50
2018-03-30T11:46:33.085Z,98170.41
2018-03-30T11:49:02.233Z,98170.06
2018-03-30T11:51:30.936Z,98177.81
2018-03-30T11:53:59.603Z,98155.51
2018-03-30T11:56:28.476Z,98174.45
2018-03-30T11:58:57.447Z,98165.31
2018-03-30T12:01:27.114Z,98156.42
2018-03-30T12:03:56.501Z,98148.05
2018-03-30T12:06:26.087Z,98152.38
2018-03-30T12:08:54.905Z,98143.27
2018-03-30T12:11:24.435Z,98137.57
2018-03-30T12:13:54.330Z,98128.30
2018-03-30T12:16:24.424Z,98128.70
2018-03-30T12:18:53.362Z,98119.47
2018-03-30T12:21:22.202Z,98155.30
2018-03-30T12:23:51.128Z,98116.03
2018-03-30T12:26:19.995Z,98111.31
2018-03-30T12:28:49.104Z,98098.06
2018-03-30T12:31:17.999Z,98109.98
2018-03-30T12:33:47.728Z,98100.59
2018-03-30T12:36:16.867Z,98094.95
2018-03-30T12:38:45.775Z,98094.69
2018-03-30T12:41:15.198Z,98085.72
2018-03-30T12:43:45.555Z,98086.92
2018-03-30T12:46:15.258Z,98106.05
2018-03-30T12:48:44.760Z,98121.08
2018-03-30T12:51:13.688Z,98110.34
2018-03-30T12:53:42.676Z,98082.66
2018-03-30T12:56:11.568Z,98096.56
2018-03-30T12:58:40.602Z,98078.70
2018-03-30T13:01:10.960Z,98093.98
2018-03-30T13:03:39.912Z,98102.41
2018-03-30T13:06:08.857Z,98072.58
2018-03-30T13:08:37.941Z,98086.11
2018-03-30T13:11:07.707Z,98077.06
2018-03-30T13:13:38.780Z,98096.26
2018-03-30T13:16:08.169Z,98079.59
2018-03-30T13:18:38.183Z,98078.82
2018-03-30T13:21:07.281Z,98107.94
2018-03-30T13:23:36.383Z,98084.28
2018-03-30T13:26:05.471Z,98082.44
2018-03-30T13:28:35.095Z,98077.02
2018-03-30T13:31:05.417Z,98097.00
2018-03-30T13:33:34.646Z,98081.94
2018-03-30T13:36:04.801Z,98072.34
2018-03-30T13:38:34.556Z,98095.78
2018-03-30T13:41:03.471Z,98060.95
2018-03-30T13:43:32.370Z,98067.65
2018-03-30T13:46:01.388Z,98060.80
2018-03-30T13:48:30.387Z,98055.58
2018-03-30T13:51:12.276Z,98047.45
2018-03-30T13:53:43.690Z,98067.52
2018-03-30T13:56:14.196Z,98072.94
2018-03-30T13:58:49.946Z,98053.09
2018-03-30T14:01:22.132Z,98055.64
2018-03-30T14:04:08.899Z,98052.33
2018-03-30T14:06:51.557Z,98063.97
2018-03-30T14:09:25.926Z,98058.57
2018-03-30T14:12:03.525Z,98059.52
2018-03-30T14:14:32.913Z,98055.33
2018-03-30T14:17:05.878Z,98067.44
2018-03-30T14:19:42.853Z,98068.48
2018-03-30T14:22:35.200Z,98067.53
2018-03-30T14:25:08.627Z,98075.08
2018-03-30T14:27:45.439Z,98072.72
2018-03-30T14:30:21.192Z,98058.37
2018-03-30T14:33:05.872Z,98047.23
2018-03-30T14:35:45.176Z,98051.77
2018-03-30T14:38:25.151Z,98060.03
2018-03-30T14:40:54.261Z,98062.14
2018-03-30T14:43:44.282Z,98071.01
2018-03-30T14:46:17.176Z,98079.59
2018-03-30T14:48:56.791Z,98080.41
2018-03-30T14:51:43.782Z,98077.19
2018-03-30T14:54:20.143Z,98092.45
2018-03-30T14:59:58.132Z,98085.88
2018-03-30T15:02:32.495Z,98082.73
2018-03-30T15:08:59.328Z,98105.83
2018-03-30T15:14:45.981Z,98090.23
2018-03-30T15:20:37.078Z,98071.34
2018-03-30T15:23:16.844Z,98074.48
2018-03-30T15:26:05.161Z,98065.23
2018-03-30T15:28:36.730Z,98057.73
2018-03-30T15:34:35.081Z,98059.39
2018-03-30T15:37:17.562Z,98070.95
2018-03-30T15:40:01.439Z,98064.60
2018-03-30T15:42:40.018Z,98063.48
2018-03-30T15:45:16.737Z,98065.07
2018-03-30T15:47:45.935Z,98066.72
2018-03-30T15:50:15.498Z,98063.48
2018-03-30T15:52:45.551Z,98063.57
2018-03-30T15:55:14.859Z,98061.02
2018-03-30T15:57:44.047Z,98066.16
2018-03-30T16:00:18.603Z,98068.94
2018-03-30T16:02:48.390Z,98075.80
2018-03-30T16:05:19.245Z,98080.11
2018-03-30T16:07:49.785Z,98097.54
2018-03-30T16:10:34.668Z,98102.17
2018-03-30T16:13:05.046Z,98105.39
2018-03-30T16:15:34.316Z,98104.48
2018-03-30T16:18:05.338Z,98118.20
2018-03-30T16:20:35.038Z,98150.27
2018-03-30T16:23:05.319Z,98141.02
2018-03-30T16:25:34.409Z,98132.70
2018-03-30T16:28:03.299Z,98144.07
2018-03-30T16:30:32.165Z,98137.83
2018-03-30T16:33:01.125Z,98151.85
2018-03-30T16:35:31.068Z,98150.28
2018-03-30T16:38:00.688Z,98164.43
2018-03-30T16:40:29.212Z,98160.64
2018-03-30T16:42:57.765Z,98153.27
2018-03-30T16:45:26.256Z,98156.25
2018-03-30T16:47:56.277Z,98157.00
2018-03-30T16:50:25.463Z,98149.17
2018-03-30T16:52:55.442Z,98144.51
2018-03-30T16:55:24.136Z,98143.56
2018-03-30T16:57:52.702Z,98133.70
2018-03-30T17:00:22.610Z,98129.66
2018-03-30T17:02:52.950Z,98119.86
2018-03-30T17:05:21.834Z,98121.53
2018-03-30T17:07:51.073Z,98115.62
2018-03-30T17:10:19.714Z,98115.35
2018-03-30T17:12:48.429Z,98111.23
2018-03-30T17:15:16.638Z,98112.63
2018-03-30T17:17:47.365Z,98117.45
2018-03-30T17:20:16.188Z,98111.17
2018-03-30T17:22:44.832Z,98104.56
2018-03-30T17:25:13.022Z,98106.27
2018-03-30T17:27:41.410Z,98106.26
2018-03-30T17:30:09.767Z,98082.60
2018-03-30T17:32:39.539Z,98078.81
2018-03-30T17:35:08.058Z,98067.44
2018-03-30T17:37:36.338Z,98058.27
2018-03-30T17:40:04.449Z,98042.75
2018-03-30T17:42:32.681Z,98041.91
2018-03-30T17:45:00.854Z,98038.60
2018-03-30T17:47:29.012Z,98033.56
2018-03-30T17:49:57.972Z,98025.55
2018-03-30T17:52:27.212Z,98009.56
2018-03-30T17:54:55.937Z,97979.41
2018-03-30T17:57:26.278Z,97964.43
2018-03-30T17:59:54.507Z,97945.28
2018-03-30T18:02:22.731Z,97930.66
2018-03-30T18:04:51.047Z,97944.33
2018-03-30T18:07:19.271Z,97949.16
2018-03-30T18:09:48.101Z,97943.92
2018-03-30T18:12:17.102Z,97953.30
2018-03-30T18:14:46.268Z,97961.84
2018-03-30T18:17:15.183Z,97971.52
2018-03-30T18:19:43.397Z,97967.92
2018-03-30T18:22:12.484Z,97976.50
2018-03-30T18:24:40.952Z,97984.36
2018-03-30T18:27:09.497Z,97979.92
2018-03-30T18:29:38.482Z,97985.43
2018-03-30T18:32:07.909Z,97987.78
2018-03-30T18:34:36.340Z,97995.59
2018-03-30T18:37:04.854Z,97993.38
2018-03-30T18:39:33.092Z,98015.92
2018-03-30T18:42:02.162Z,98030.14
2018-03-30T18:44:30.230Z,98056.33
2018-03-30T18:46:58.630Z,98071.91
2018-03-30T18:49:26.835Z,98058.52
2018-03-30T18:51:55.013Z,98074.25
2018-03-30T18:54:24.252Z,98087.13
2018-03-30T18:56:52.554Z,98095.32
2018-03-30T18:59:20.812Z,98091.65
2018-03-30T19:01:48.986Z,98096.69
2018-03-30T19:04:17.189Z,98091.12
2018-03-30T19:06:46.426Z,98076.57
2018-03-30T19:09:15.464Z,98094.69
2018-03-30T19:11:44.107Z,98069.61
2018-03-30T19:14:13.106Z,98068.17
2018-03-30T19:16:41.581Z,98054.14
2018-03-30T19:19:09.960Z,98061.92
2018-03-30T19:21:39.968Z,98069.16
2018-03-30T19:24:08.961Z,98069.56
2018-03-30T19:26:38.134Z,98064.61
2018-03-30T19:29:06.904Z,98067.36
2018-03-30T19:31:36.677Z,98073.31
2018-03-30T19:34:05.497Z,98073.03
2018-03-30T19:36:33.881Z,98078.48
2018-03-30T19:39:04.124Z,98081.72
2018-03-30T19:41:32.823Z,98094.93
2018-03-30T19:44:02.827Z,98091.83
2018-03-30T19:46:31.239Z,98100.02
2018-03-30T19:48:59.831Z,98101.83
2018-03-30T19:51:28.296Z,98099.12
2018-03-30T19:53:56.969Z,98105.35
2018-03-30T19:56:26.728Z,98114.59
2018-03-30T19:58:55.128Z,98110.52
2018-03-30T20:01:23.385Z,98113.98
2018-03-30T20:03:51.681Z,98116.80
2018-03-30T20:06:20.180Z,98114.03
2018-03-30T20:08:49.117Z,98123.47
2018-03-30T20:11:18.243Z,98116.16
2018-03-30T20:13:54.559Z,98115.00
2018-03-30T20:16:24.176Z,98121.42
2018-03-30T20:18:52.314Z,98101.28
2018-03-30T20:21:23.457Z,98106.61
2018-03-30T20:23:51.497Z,98097.08
2018-03-30T20:26:20.845Z,98063.64
2018-03-30T20:28:49.541Z,98066.63
2018-03-30T20:31:18.390Z,98059.56
2018-03-30T20:33:46.642Z,98094.25
2018-03-30T20:36:16.261Z,98066.89
2018-03-30T20:38:45.682Z,98052.21
2018-03-30T20:41:14.563Z,98052.27
2018-03-30T20:43:42.684Z,98048.20
2018-03-30T20:46:11.162Z,98045.85
2018-03-30T20:48:42.482Z,98027.70
2018-03-30T20:51:10.852Z,98027.25
2018-03-30T20:53:39.026Z,98021.05
2018-03-30T20:56:07.205Z,98018.75
2018-03-30T20:58:35.759Z,98002.02
2018-03-30T21:01:04.632Z,97988.03
2018-03-30T21:03:32.816Z,97982.84
2018-03-30T21:06:02.398Z,97971.95
2018-03-30T21:08:31.219Z,97980.80
2018-03-30T21:11:00.027Z,97969.55
2018-03-30T21:13:29.265Z,97954.30
2018-03-30T21:15:57.549Z,97955.34
2018-03-30T21:18:25.749Z,97948.73
2018-03-30T21:20:56.612Z,97953.34
2018-03-30T21:26:11.466Z,97941.02
2018-03-30T21:28:39.750Z,97948.45
2018-03-30T21:31:08.327Z,97967.47
2018-03-30T21:33:36.832Z,97960.36
2018-03-30T21:36:04.884Z,97964.22
2018-03-30T21:38:32.892Z,97961.14
2018-03-30T21:41:02.820Z,97959.77
2018-03-30T21:43:31.680Z,97973.81
2018-03-30T21:45:59.973Z,97982.86
2018-03-30T21:48:28.063Z,97968.50
2018-03-30T21:51:01.629Z,97952.39
2018-03-30T21:53:38.531Z,97944.16
2018-03-30T21:56:07.813Z,97949.90
2018-03-30T21:58:35.650Z,97929.15
2018-03-30T22:01:03.584Z,97925.70
2018-03-30T22:03:36.580Z,97915.06
2018-03-30T22:06:06.671Z,97912.50
2018-03-30T22:08:36.265Z,97926.86
2018-03-30T22:11:04.754Z,97929.06
2018-03-30T22:13:35.657Z,97916.17
2018-03-30T22:16:04.521Z,97930.09
2018-03-30T22:18:32.593Z,97919.29
2018-03-30T22:21:00.889Z,97910.06
2018-03-30T22:23:29.445Z,97902.98
2018-03-30T22:26:00.141Z,97928.61
2018-03-30T22:28:28.464Z,97905.92
2018-03-30T22:30:56.488Z,97907.02
2018-03-30T22:33:26.607Z,97895.66
2018-03-30T22:35:55.100Z,97888.84
2018-03-30T22:38:23.422Z,97924.88
2018-03-30T22:40:51.447Z,97911.45
2018-03-30T22:43:20.871Z,97897.92
2018-03-30T22:45:49.593Z,97910.75
2018-03-30T22:48:17.512Z,97899.49
2018-03-30T22:50:45.371Z,97928.60
2018-03-30T22:53:13.307Z,97912.27
2018-03-30T22:55:41.362Z,97904.20
2018-03-30T22:58:09.589Z,97908.93
2018-03-30T23:00:38.411Z,97895.41
2018-03-30T23:03:06.270Z,97909.31
2018-03-30T23:05:34.026Z,97883.95
2018-03-30T23:08:02.482Z,97883.64
2018-03-30T23:10:30.274Z,97895.38
2018-03-30T23:12:58.009Z,97865.08
2018-03-30T23:15:26.598Z,97885.59
2018-03-30T23:17:55.050Z,97873.83
2018-03-30T23:20:22.758Z,97868.00
2018-03-30T23:22:50.525Z,97859.34
2018-03-30T23:25:18.269Z,97859.30
2018-03-30T23:27:46.751Z,97832.04
2018-03-30T23:30:14.453Z,97845.09
2018-03-30T23:32:43.019Z,97849.28
2018-03-30T23:35:10.828Z,97825.34
2018-03-30T23:37:38.534Z,97832.95
2018-03-30T23:40:06.870Z,97830.68
2018-03-30T23:42:35.064Z,97833.98
2018-03-30T23:45:03.165Z,97826.90
2018-03-30T23:47:31.046Z,97853.63
2018-03-30T23:49:58.813Z,97843.13
2018-03-30T23:52:26.509Z,97816.53
2018-03-30T23:54:54.354Z,97825.84
2018-03-30T23:57:22.254Z,97832.71
2018-03-30T23:59:50.888Z,97840.91
